sensor_id;sensor_type;location;lat;lon;timestamp;pressure;altitude;pressure_sealevel;temperature;humidity
35908;BME280;22003;50.320;8.054;2023-02-12T00:00:37;101806.00;;;4.21;100.00
35908;BME280;22003;50.320;8.054;2023-02-12T05:01:43;101826.31;;;4.13;100.00
35908;BME280;22003;50.320;8.054;2023-02-12T05:04:11;101826.22;;;4.17;100.00
35908;BME280;22003;50.320;8.054;2023-02-12T05:06:38;101827.97;;;4.15;100.00
35908;BME280;22003;50.320;8.054;2023-02-12T05:09:05;101822.56;;;4.24;100.00
35908;BME280;22003;50.320;8.054;2023-02-12T05:11:31;101823.78;;;4.05;100.00
35908;BME280;22003;50.320;8.054;2023-02-12T05:13:57;101811.63;;;4.03;100.00
35908;BME280;22003;50.320;8.054;2023-02-12T05:16:23;101824.91;;;3.92;100.00
35908;BME280;22003;50.320;8.054;2023-02-12T05:18:48;101820.56;;;3.91;100.00
35908;BME280;22003;50.320;8.054;2023-02-12T05:21:13;101818.09;;;3.83;100.00
35908;BME280;22003;50.320;8.054;2023-02-12T05:23:39;101833.72;;;3.88;100.00
35908;BME280;22003;50.320;8.054;2023-02-12T05:26:08;101815.53;;;3.79;100.00
35908;BME280;22003;50.320;8.054;2023-02-12T05:28:34;101838.09;;;3.87;100.00
35908;BME280;22003;50.320;8.054;2023-02-12T05:31:00;101832.00;;;3.87;100.00
35908;BME280;22003;50.320;8.054;2023-02-12T05:33:26;101824.31;;;3.76;100.00
35908;BME280;22003;50.320;8.054;2023-02-12T05:35:51;101839.94;;;3.84;100.00
35908;BME280;22003;50.320;8.054;2023-02-12T05:38:17;101828.47;;;3.88;100.00
35908;BME280;22003;50.320;8.054;2023-02-12T05:40:42;101838.56;;;4.12;100.00
35908;BME280;22003;50.320;8.054;2023-02-12T05:43:07;101845.75;;;4.01;100.00
35908;BME280;22003;50.320;8.054;2023-02-12T05:45:32;101851.00;;;4.01;100.00
35908;BME280;22003;50.320;8.054;2023-02-12T05:47:58;101852.75;;;4.01;100.00
35908;BME280;22003;50.320;8.054;2023-02-12T05:50:23;101842.75;;;4.22;100.00
35908;BME280;22003;50.320;8.054;2023-02-12T05:52:49;101849.94;;;4.10;100.00
35908;BME280;22003;50.320;8.054;2023-02-12T05:55:14;101836.13;;;4.02;100.00
35908;BME280;22003;50.320;8.054;2023-02-12T05:57:39;101849.09;;;4.09;100.00
35908;BME280;22003;50.320;8.054;2023-02-12T06:00:06;101840.53;;;3.98;100.00
35908;BME280;22003;50.320;8.054;2023-02-12T06:02:33;101854.34;;;4.09;100.00
35908;BME280;22003;50.320;8.054;2023-02-12T06:04:58;101848.22;;;4.09;100.00
35908;BME280;22003;50.320;8.054;2023-02-12T06:07:24;101854.19;;;4.18;100.00
35908;BME280;22003;50.320;8.054;2023-02-12T06:09:49;101840.31;;;4.12;100.00
35908;BME280;22003;50.320;8.054;2023-02-12T06:12:14;101842.13;;;4.08;100.00
35908;BME280;22003;50.320;8.054;2023-02-12T06:14:40;101860.31;;;4.16;100.00
35908;BME280;22003;50.320;8.054;2023-02-12T06:17:05;101867.41;;;4.12;100.00
35908;BME280;22003;50.320;8.054;2023-02-12T06:19:30;101866.59;;;4.09;100.00
35908;BME280;22003;50.320;8.054;2023-02-12T06:21:55;101859.66;;;4.05;100.00
35908;BME280;22003;50.320;8.054;2023-02-12T06:24:21;101872.66;;;4.12;100.00
35908;BME280;22003;50.320;8.054;2023-02-12T06:26:48;101861.38;;;4.07;100.00
35908;BME280;22003;50.320;8.054;2023-02-12T06:29:14;101855.38;;;4.01;100.00
35908;BME280;22003;50.320;8.054;2023-02-12T06:31:40;101868.53;;;3.97;100.00
35908;BME280;22003;50.320;8.054;2023-02-12T06:34:08;101863.13;;;4.05;100.00
35908;BME280;22003;50.320;8.054;2023-02-12T06:36:36;101858.09;;;3.93;100.00
35908;BME280;22003;50.320;8.054;2023-02-12T06:39:02;101858.19;;;3.90;100.00
35908;BME280;22003;50.320;8.054;2023-02-12T06:41:28;101871.13;;;3.99;100.00
35908;BME280;22003;50.320;8.054;2023-02-12T06:43:54;101878.13;;;4.00;100.00
35908;BME280;22003;50.320;8.054;2023-02-12T06:46:20;101876.50;;;3.91;100.00
35908;BME280;22003;50.320;8.054;2023-02-12T06:48:45;101866.16;;;3.82;100.00
35908;BME280;22003;50.320;8.054;2023-02-12T06:51:16;101872.09;;;3.93;100.00
35908;BME280;22003;50.320;8.054;2023-02-12T06:53:42;101877.25;;;3.98;100.00
35908;BME280;22003;50.320;8.054;2023-02-12T06:56:09;101874.59;;;4.01;100.00
35908;BME280;22003;50.320;8.054;2023-02-12T06:58:36;101877.22;;;4.01;100.00
35908;BME280;22003;50.320;8.054;2023-02-12T07:01:13;101880.75;;;4.00;100.00
35908;BME280;22003;50.320;8.054;2023-02-12T07:03:46;101894.53;;;4.11;100.00
35908;BME280;22003;50.320;8.054;2023-02-12T07:06:11;101895.25;;;4.19;100.00
35908;BME280;22003;50.320;8.054;2023-02-12T07:08:37;101882.53;;;4.46;100.00
35908;BME280;22003;50.320;8.054;2023-02-12T07:11:03;101896.75;;;4.33;100.00
35908;BME280;22003;50.320;8.054;2023-02-12T07:13:28;101881.34;;;4.14;100.00
35908;BME280;22003;50.320;8.054;2023-02-12T07:15:53;101895.16;;;4.26;100.00
35908;BME280;22003;50.320;8.054;2023-02-12T07:18:19;101892.59;;;4.22;100.00
35908;BME280;22003;50.320;8.054;2023-02-12T07:20:44;101899.53;;;4.25;100.00
35908;BME280;22003;50.320;8.054;2023-02-12T07:23:12;101875.19;;;4.17;100.00
35908;BME280;22003;50.320;8.054;2023-02-12T07:25:37;101887.28;;;4.26;100.00
35908;BME280;22003;50.320;8.054;2023-02-12T07:28:03;101884.81;;;4.16;100.00
35908;BME280;22003;50.320;8.054;2023-02-12T07:30:29;101900.28;;;4.32;100.00
35908;BME280;22003;50.320;8.054;2023-02-12T07:32:54;101901.25;;;4.28;100.00
35908;BME280;22003;50.320;8.054;2023-02-12T07:35:19;101885.69;;;4.17;100.00
35908;BME280;22003;50.320;8.054;2023-02-12T07:37:45;101889.94;;;4.24;100.00
35908;BME280;22003;50.320;8.054;2023-02-12T07:40:10;101912.50;;;4.34;100.00
35908;BME280;22003;50.320;8.054;2023-02-12T07:42:35;101915.16;;;4.31;100.00
35908;BME280;22003;50.320;8.054;2023-02-12T07:45:01;101904.84;;;4.20;100.00
35908;BME280;22003;50.320;8.054;2023-02-12T07:47:26;101896.09;;;4.21;100.00
35908;BME280;22003;50.320;8.054;2023-02-12T07:49:51;101904.84;;;4.22;100.00
35908;BME280;22003;50.320;8.054;2023-02-12T07:52:17;101905.53;;;4.32;100.00
35908;BME280;22003;50.320;8.054;2023-02-12T07:54:42;101916.66;;;4.46;100.00
35908;BME280;22003;50.320;8.054;2023-02-12T07:57:07;101914.91;;;4.46;100.00
35908;BME280;22003;50.320;8.054;2023-02-12T07:59:32;101916.28;;;4.67;100.00
35908;BME280;22003;50.320;8.054;2023-02-12T08:01:58;101913.66;;;4.67;100.00
35908;BME280;22003;50.320;8.054;2023-02-12T08:04:25;101926.53;;;4.80;100.00
35908;BME280;22003;50.320;8.054;2023-02-12T08:06:52;101923.63;;;4.95;100.00
35908;BME280;22003;50.320;8.054;2023-02-12T08:09:21;101903.34;;;5.01;100.00
35908;BME280;22003;50.320;8.054;2023-02-12T08:11:47;101923.91;;;5.21;100.00
35908;BME280;22003;50.320;8.054;2023-02-12T08:14:15;101926.22;;;5.37;100.00
35908;BME280;22003;50.320;8.054;2023-02-12T08:16:42;101914.94;;;5.32;100.00
35908;BME280;22003;50.320;8.054;2023-02-12T08:19:08;101922.56;;;5.44;100.00
35908;BME280;22003;50.320;8.054;2023-02-12T08:21:34;101927.94;;;5.38;100.00
35908;BME280;22003;50.320;8.054;2023-02-12T08:23:59;101927.09;;;5.77;100.00
35908;BME280;22003;50.320;8.054;2023-02-12T08:26:29;101930.13;;;5.59;100.00
35908;BME280;22003;50.320;8.054;2023-02-12T08:29:00;101923.81;;;5.66;100.00
35908;BME280;22003;50.320;8.054;2023-02-12T08:31:28;101918.72;;;5.59;100.00
35908;BME280;22003;50.320;8.054;2023-02-12T08:33:54;101928.25;;;5.64;100.00
35908;BME280;22003;50.320;8.054;2023-02-12T08:36:23;101915.47;;;5.47;100.00
35908;BME280;22003;50.320;8.054;2023-02-12T08:38:49;101930.06;;;5.61;100.00
35908;BME280;22003;50.320;8.054;2023-02-12T08:41:17;101908.25;;;5.57;100.00
35908;BME280;22003;50.320;8.054;2023-02-12T08:43:44;101935.69;;;5.82;100.00
35908;BME280;22003;50.320;8.054;2023-02-12T08:46:15;101919.91;;;5.82;100.00
35908;BME280;22003;50.320;8.054;2023-02-12T08:48:41;101915.19;;;5.98;100.00
35908;BME280;22003;50.320;8.054;2023-02-12T08:51:12;101937.03;;;6.02;100.00
35908;BME280;22003;50.320;8.054;2023-02-12T08:53:40;101936.63;;;6.19;100.00
35908;BME280;22003;50.320;8.054;2023-02-12T08:56:06;101930.28;;;6.61;100.00
35908;BME280;22003;50.320;8.054;2023-02-12T08:58:32;101937.66;;;6.47;100.00
35908;BME280;22003;50.320;8.054;2023-02-12T09:00:58;101912.94;;;6.53;100.00
35908;BME280;22003;50.320;8.054;2023-02-12T09:03:23;101913.66;;;6.58;100.00
35908;BME280;22003;50.320;8.054;2023-02-12T09:05:48;101935.31;;;6.69;100.00
35908;BME280;22003;50.320;8.054;2023-02-12T09:08:14;101938.16;;;6.61;100.00
35908;BME280;22003;50.320;8.054;2023-02-12T09:10:40;101934.81;;;6.87;100.00
35908;BME280;22003;50.320;8.054;2023-02-12T09:13:10;101919.66;;;6.96;100.00
35908;BME280;22003;50.320;8.054;2023-02-12T09:15:37;101923.81;;;6.73;100.00
35908;BME280;22003;50.320;8.054;2023-02-12T09:18:03;101928.22;;;6.73;100.00
35908;BME280;22003;50.320;8.054;2023-02-12T09:20:30;101919.84;;;6.88;100.00
35908;BME280;22003;50.320;8.054;2023-02-12T09:22:57;101932.56;;;7.05;100.00
35908;BME280;22003;50.320;8.054;2023-02-12T09:25:22;101916.53;;;7.12;100.00
35908;BME280;22003;50.320;8.054;2023-02-12T09:27:47;101908.63;;;7.12;100.00
35908;BME280;22003;50.320;8.054;2023-02-12T09:30:13;101930.16;;;6.97;100.00
35908;BME280;22003;50.320;8.054;2023-02-12T09:32:38;101936.38;;;6.95;100.00
35908;BME280;22003;50.320;8.054;2023-02-12T09:35:04;101932.06;;;6.92;100.00
35908;BME280;22003;50.320;8.054;2023-02-12T09:37:29;101924.03;;;6.97;100.00
35908;BME280;22003;50.320;8.054;2023-02-12T09:39:54;101928.50;;;6.93;100.00
35908;BME280;22003;50.320;8.054;2023-02-12T09:42:50;101918.59;;;7.60;100.00
35908;BME280;22003;50.320;8.054;2023-02-12T09:45:20;101937.25;;;7.54;100.00
35908;BME280;22003;50.320;8.054;2023-02-12T09:50:41;101943.31;;;7.58;100.00
35908;BME280;22003;50.320;8.054;2023-02-12T09:53:15;101934.56;;;8.12;100.00
35908;BME280;22003;50.320;8.054;2023-02-12T09:55:41;101928.97;;;7.94;99.14
35908;BME280;22003;50.320;8.054;2023-02-12T09:58:16;101939.22;;;7.48;100.00
35908;BME280;22003;50.320;8.054;2023-02-12T10:00:44;101942.69;;;7.50;100.00
35908;BME280;22003;50.320;8.054;2023-02-12T10:03:14;101938.91;;;7.86;100.00
35908;BME280;22003;50.320;8.054;2023-02-12T10:05:46;101939.88;;;8.38;99.07
35908;BME280;22003;50.320;8.054;2023-02-12T10:08:23;101943.00;;;8.23;96.04
35908;BME280;22003;50.320;8.054;2023-02-12T10:11:00;101940.22;;;8.26;98.18
35908;BME280;22003;50.320;8.054;2023-02-12T10:13:49;101941.69;;;8.36;98.38
35908;BME280;22003;50.320;8.054;2023-02-12T10:19:21;101947.75;;;8.40;96.51
35908;BME280;22003;50.320;8.054;2023-02-12T10:22:16;101949.03;;;8.53;95.93
35908;BME280;22003;50.320;8.054;2023-02-12T10:24:48;101942.25;;;8.46;95.41
35908;BME280;22003;50.320;8.054;2023-02-12T10:27:20;101933.41;;;7.92;97.79
35908;BME280;22003;50.320;8.054;2023-02-12T10:29:50;101942.41;;;7.59;100.00
35908;BME280;22003;50.320;8.054;2023-02-12T10:32:24;101933.56;;;7.60;100.00
35908;BME280;22003;50.320;8.054;2023-02-12T10:34:50;101953.63;;;7.65;100.00
35908;BME280;22003;50.320;8.054;2023-02-12T10:37:31;101954.84;;;7.54;100.00
35908;BME280;22003;50.320;8.054;2023-02-12T10:40:25;101945.94;;;7.58;100.00
35908;BME280;22003;50.320;8.054;2023-02-12T10:42:52;101927.16;;;7.68;100.00
35908;BME280;22003;50.320;8.054;2023-02-12T10:45:21;101940.28;;;7.98;100.00
35908;BME280;22003;50.320;8.054;2023-02-12T10:47:51;101927.47;;;7.58;100.00
35908;BME280;22003;50.320;8.054;2023-02-12T10:53:00;101927.22;;;7.67;100.00
35908;BME280;22003;50.320;8.054;2023-02-12T10:55:32;101942.25;;;7.63;100.00
35908;BME280;22003;50.320;8.054;2023-02-12T10:58:00;101941.09;;;7.44;100.00
35908;BME280;22003;50.320;8.054;2023-02-12T11:00:29;101933.50;;;7.33;100.00
35908;BME280;22003;50.320;8.054;2023-02-12T11:03:01;101910.22;;;7.76;100.00
35908;BME280;22003;50.320;8.054;2023-02-12T11:05:29;101931.25;;;7.49;100.00
35908;BME280;22003;50.320;8.054;2023-02-12T11:07:55;101929.22;;;7.29;100.00
35908;BME280;22003;50.320;8.054;2023-02-12T11:10:27;101927.13;;;7.40;100.00
35908;BME280;22003;50.320;8.054;2023-02-12T11:12:53;101925.22;;;7.46;100.00
35908;BME280;22003;50.320;8.054;2023-02-12T11:15:22;101923.97;;;7.57;100.00
35908;BME280;22003;50.320;8.054;2023-02-12T11:18:05;101914.56;;;7.49;100.00
35908;BME280;22003;50.320;8.054;2023-02-12T11:20:40;101889.06;;;7.49;100.00
35908;BME280;22003;50.320;8.054;2023-02-12T11:26:02;101915.00;;;7.63;100.00
35908;BME280;22003;50.320;8.054;2023-02-12T11:28:28;101904.69;;;7.83;100.00
35908;BME280;22003;50.320;8.054;2023-02-12T11:30:57;101904.53;;;8.14;100.00
35908;BME280;22003;50.320;8.054;2023-02-12T11:33:28;101904.88;;;8.30;100.00
35908;BME280;22003;50.320;8.054;2023-02-12T11:35:56;101898.66;;;7.80;100.00
35908;BME280;22003;50.320;8.054;2023-02-12T11:38:29;101894.09;;;8.11;100.00
35908;BME280;22003;50.320;8.054;2023-02-12T11:40:58;101889.19;;;8.26;100.00
35908;BME280;22003;50.320;8.054;2023-02-12T11:43:26;101891.97;;;7.96;100.00
35908;BME280;22003;50.320;8.054;2023-02-12T11:45:54;101887.31;;;8.29;100.00
35908;BME280;22003;50.320;8.054;2023-02-12T11:50:51;101892.16;;;8.43;99.89
35908;BME280;22003;50.320;8.054;2023-02-12T11:53:24;101884.63;;;8.31;100.00
35908;BME280;22003;50.320;8.054;2023-02-12T11:55:57;101887.75;;;8.17;100.00
35908;BME280;22003;50.320;8.054;2023-02-12T11:58:24;101855.06;;;7.94;100.00
35908;BME280;22003;50.320;8.054;2023-02-12T12:01:00;101888.13;;;8.05;100.00
35908;BME280;22003;50.320;8.054;2023-02-12T12:03:34;101873.44;;;8.74;100.00
35908;BME280;22003;50.320;8.054;2023-02-12T12:06:08;101878.03;;;8.92;97.26
35908;BME280;22003;50.320;8.054;2023-02-12T12:08:45;101875.22;;;8.49;99.26
35908;BME280;22003;50.320;8.054;2023-02-12T12:11:19;101856.38;;;8.08;100.00
35908;BME280;22003;50.320;8.054;2023-02-12T12:13:59;101874.66;;;8.40;100.00
35908;BME280;22003;50.320;8.054;2023-02-12T12:16:36;101861.38;;;8.90;97.62
35908;BME280;22003;50.320;8.054;2023-02-12T12:19:27;101819.56;;;8.03;100.00
35908;BME280;22003;50.320;8.054;2023-02-12T12:24:54;101832.53;;;8.09;100.00
35908;BME280;22003;50.320;8.054;2023-02-12T12:27:31;101861.06;;;8.25;100.00
35908;BME280;22003;50.320;8.054;2023-02-12T12:30:38;101851.88;;;8.36;100.00
35908;BME280;22003;50.320;8.054;2023-02-12T12:33:24;101833.19;;;8.16;100.00
35908;BME280;22003;50.320;8.054;2023-02-12T12:36:11;101859.34;;;8.24;100.00
35908;BME280;22003;50.320;8.054;2023-02-12T12:41:46;101861.13;;;8.50;100.00
35908;BME280;22003;50.320;8.054;2023-02-12T12:44:31;101855.22;;;8.41;100.00
35908;BME280;22003;50.320;8.054;2023-02-12T12:49:43;101851.19;;;8.56;100.00
35908;BME280;22003;50.320;8.054;2023-02-12T12:52:34;101851.09;;;8.33;100.00
35908;BME280;22003;50.320;8.054;2023-02-12T12:57:55;101846.69;;;8.33;100.00
35908;BME280;22003;50.320;8.054;2023-02-12T13:00:30;101835.66;;;8.22;100.00
35908;BME280;22003;50.320;8.054;2023-02-12T13:03:24;101831.38;;;8.18;100.00
35908;BME280;22003;50.320;8.054;2023-02-12T13:08:38;101832.25;;;8.18;100.00
35908;BME280;22003;50.320;8.054;2023-02-12T13:11:30;101808.41;;;8.20;100.00
35908;BME280;22003;50.320;8.054;2023-02-12T13:14:22;101830.94;;;8.30;100.00
35908;BME280;22003;50.320;8.054;2023-02-12T13:16:57;101822.16;;;8.30;100.00
35908;BME280;22003;50.320;8.054;2023-02-12T13:22:32;101823.53;;;8.41;100.00
35908;BME280;22003;50.320;8.054;2023-02-12T13:25:24;101816.97;;;8.27;100.00
35908;BME280;22003;50.320;8.054;2023-02-12T13:27:51;101818.31;;;8.40;100.00
35908;BME280;22003;50.320;8.054;2023-02-12T13:33:06;101778.81;;;8.35;100.00
35908;BME280;22003;50.320;8.054;2023-02-12T13:35:31;101823.47;;;8.43;100.00
35908;BME280;22003;50.320;8.054;2023-02-12T13:37:59;101814.19;;;8.31;100.00
35908;BME280;22003;50.320;8.054;2023-02-12T13:40:27;101810.81;;;8.28;100.00
35908;BME280;22003;50.320;8.054;2023-02-12T13:54:30;101792.31;;;8.28;100.00
35908;BME280;22003;50.320;8.054;2023-02-12T13:57:00;101809.91;;;8.27;100.00
35908;BME280;22003;50.320;8.054;2023-02-12T14:01:54;101788.59;;;8.33;100.00
35908;BME280;22003;50.320;8.054;2023-02-12T14:07:07;101792.53;;;8.46;100.00
35908;BME280;22003;50.320;8.054;2023-02-12T14:09:38;101790.75;;;8.47;100.00
35908;BME280;22003;50.320;8.054;2023-02-12T14:12:09;101811.03;;;8.46;100.00
35908;BME280;22003;50.320;8.054;2023-02-12T14:14:41;101767.28;;;8.39;100.00
35908;BME280;22003;50.320;8.054;2023-02-12T14:20:28;101765.44;;;8.41;100.00
35908;BME280;22003;50.320;8.054;2023-02-12T14:22:55;101782.66;;;8.52;100.00
35908;BME280;22003;50.320;8.054;2023-02-12T14:27:54;101778.00;;;8.58;100.00
35908;BME280;22003;50.320;8.054;2023-02-12T14:30:36;101784.44;;;8.75;100.00
35908;BME280;22003;50.320;8.054;2023-02-12T14:33:23;101775.19;;;8.86;100.00
35908;BME280;22003;50.320;8.054;2023-02-12T14:41:30;101781.06;;;8.94;100.00
35908;BME280;22003;50.320;8.054;2023-02-12T14:46:44;101781.50;;;8.82;100.00
35908;BME280;22003;50.320;8.054;2023-02-12T14:49:26;101772.63;;;8.61;100.00
35908;BME280;22003;50.320;8.054;2023-02-12T14:54:41;101771.47;;;8.45;100.00
35908;BME280;22003;50.320;8.054;2023-02-12T14:57:18;101781.41;;;8.38;100.00
35908;BME280;22003;50.320;8.054;2023-02-12T14:59:46;101780.31;;;8.44;100.00
35908;BME280;22003;50.320;8.054;2023-02-12T15:02:19;101788.19;;;8.45;100.00
35908;BME280;22003;50.320;8.054;2023-02-12T15:04:49;101782.34;;;8.36;100.00
35908;BME280;22003;50.320;8.054;2023-02-12T15:07:30;101783.97;;;8.40;100.00
35908;BME280;22003;50.320;8.054;2023-02-12T15:10:01;101781.19;;;8.44;100.00
35908;BME280;22003;50.320;8.054;2023-02-12T15:12:41;101757.75;;;8.34;100.00
35908;BME280;22003;50.320;8.054;2023-02-12T15:18:06;101742.78;;;8.09;100.00
35908;BME280;22003;50.320;8.054;2023-02-12T15:20:58;101783.47;;;8.29;100.00
35908;BME280;22003;50.320;8.054;2023-02-12T15:23:38;101776.88;;;8.15;100.00
35908;BME280;22003;50.320;8.054;2023-02-12T15:26:04;101789.34;;;8.12;100.00
35908;BME280;22003;50.320;8.054;2023-02-12T15:28:33;101778.19;;;8.04;100.00
35908;BME280;22003;50.320;8.054;2023-02-12T15:31:01;101731.06;;;7.68;100.00
35908;BME280;22003;50.320;8.054;2023-02-12T15:33:34;101782.75;;;7.99;100.00
35908;BME280;22003;50.320;8.054;2023-02-12T15:36:02;101789.88;;;7.97;100.00
35908;BME280;22003;50.320;8.054;2023-02-12T15:38:30;101773.28;;;7.93;100.00
35908;BME280;22003;50.320;8.054;2023-02-12T15:40:58;101764.84;;;7.83;100.00
35908;BME280;22003;50.320;8.054;2023-02-12T15:43:27;101737.25;;;7.67;100.00
35908;BME280;22003;50.320;8.054;2023-02-12T15:45:53;101768.22;;;7.87;100.00
35908;BME280;22003;50.320;8.054;2023-02-12T15:48:20;101771.78;;;7.86;100.00
35908;BME280;22003;50.320;8.054;2023-02-12T15:50:55;101765.72;;;7.82;100.00
35908;BME280;22003;50.320;8.054;2023-02-12T15:53:26;101760.56;;;7.79;100.00
35908;BME280;22003;50.320;8.054;2023-02-12T15:55:54;101765.72;;;7.82;100.00
35908;BME280;22003;50.320;8.054;2023-02-12T15:58:28;101754.44;;;7.79;100.00
35908;BME280;22003;50.320;8.054;2023-02-12T16:00:59;101740.91;;;7.63;100.00
35908;BME280;22003;50.320;8.054;2023-02-12T16:03:33;101719.41;;;7.49;100.00
35908;BME280;22003;50.320;8.054;2023-02-12T16:06:11;101755.81;;;7.64;100.00
35908;BME280;22003;50.320;8.054;2023-02-12T16:08:42;101716.31;;;7.36;100.00
35908;BME280;22003;50.320;8.054;2023-02-12T16:11:09;101753.38;;;7.58;100.00
35908;BME280;22003;50.320;8.054;2023-02-12T16:14:06;101754.53;;;7.49;100.00
35908;BME280;22003;50.320;8.054;2023-02-12T16:16:44;101748.63;;;7.43;100.00
35908;BME280;22003;50.320;8.054;2023-02-12T16:19:18;101757.25;;;7.48;100.00
35908;BME280;22003;50.320;8.054;2023-02-12T16:21:49;101759.00;;;7.47;100.00
35908;BME280;22003;50.320;8.054;2023-02-12T16:24:28;101720.28;;;7.23;100.00
35908;BME280;22003;50.320;8.054;2023-02-12T16:26:55;101758.31;;;7.42;100.00
35908;BME280;22003;50.320;8.054;2023-02-12T16:29:21;101732.59;;;7.22;100.00
35908;BME280;22003;50.320;8.054;2023-02-12T16:31:59;101765.56;;;7.35;100.00
35908;BME280;22003;50.320;8.054;2023-02-12T16:34:28;101763.91;;;7.31;100.00
35908;BME280;22003;50.320;8.054;2023-02-12T16:36:54;101766.56;;;7.31;100.00
35908;BME280;22003;50.320;8.054;2023-02-12T16:42:24;101764.25;;;7.22;100.00
35908;BME280;22003;50.320;8.054;2023-02-12T16:44:51;101763.31;;;7.23;100.00
35908;BME280;22003;50.320;8.054;2023-02-12T16:47:20;101769.50;;;7.22;100.00
35908;BME280;22003;50.320;8.054;2023-02-12T16:49:58;101773.94;;;7.20;100.00
35908;BME280;22003;50.320;8.054;2023-02-12T16:52:36;101744.75;;;6.98;100.00
35908;BME280;22003;50.320;8.054;2023-02-12T16:55:03;101795.16;;;7.17;100.00
35908;BME280;22003;50.320;8.054;2023-02-12T16:57:28;101776.00;;;7.10;100.00
35908;BME280;22003;50.320;8.054;2023-02-12T16:59:54;101773.41;;;7.09;100.00
35908;BME280;22003;50.320;8.054;2023-02-12T17:02:19;101777.84;;;7.08;100.00
35908;BME280;22003;50.320;8.054;2023-02-12T17:04:44;101720.09;;;6.73;100.00
35908;BME280;22003;50.320;8.054;2023-02-12T17:07:19;101784.94;;;7.06;100.00
35908;BME280;22003;50.320;8.054;2023-02-12T17:09:45;101781.47;;;7.04;100.00
35908;BME280;22003;50.320;8.054;2023-02-12T17:12:10;101777.25;;;6.99;100.00
35908;BME280;22003;50.320;8.054;2023-02-12T17:14:35;101796.41;;;7.05;100.00
35908;BME280;22003;50.320;8.054;2023-02-12T17:17:00;101776.53;;;6.94;100.00
35908;BME280;22003;50.320;8.054;2023-02-12T17:19:26;101758.38;;;6.84;100.00
35908;BME280;22003;50.320;8.054;2023-02-12T17:21:51;101784.47;;;6.92;100.00
35908;BME280;22003;50.320;8.054;2023-02-12T17:24:20;101796.22;;;7.10;100.00
35908;BME280;22003;50.320;8.054;2023-02-12T17:26:46;101747.31;;;7.01;100.00
35908;BME280;22003;50.320;8.054;2023-02-12T17:29:15;101769.53;;;7.21;100.00
35908;BME280;22003;50.320;8.054;2023-02-12T17:31:40;101757.28;;;7.20;100.00
35908;BME280;22003;50.320;8.054;2023-02-12T17:34:05;101776.16;;;7.34;100.00
35908;BME280;22003;50.320;8.054;2023-02-12T17:36:31;101797.19;;;7.35;100.00
35908;BME280;22003;50.320;8.054;2023-02-12T17:38:57;101763.59;;;7.14;100.00
35908;BME280;22003;50.320;8.054;2023-02-12T17:41:22;101800.84;;;7.31;100.00
35908;BME280;22003;50.320;8.054;2023-02-12T17:43:48;101793.44;;;7.43;100.00
35908;BME280;22003;50.320;8.054;2023-02-12T17:46:19;101770.19;;;7.01;100.00
35908;BME280;22003;50.320;8.054;2023-02-12T17:48:45;101781.34;;;7.09;100.00
35908;BME280;22003;50.320;8.054;2023-02-12T17:51:10;101806.69;;;7.13;100.00
35908;BME280;22003;50.320;8.054;2023-02-12T17:53:37;101796.16;;;7.13;100.00
35908;BME280;22003;50.320;8.054;2023-02-12T17:56:02;101787.97;;;6.93;100.00
35908;BME280;22003;50.320;8.054;2023-02-12T17:58:28;101779.16;;;6.94;100.00
35908;BME280;22003;50.320;8.054;2023-02-12T18:00:53;101809.06;;;7.21;100.00
35908;BME280;22003;50.320;8.054;2023-02-12T18:03:19;101809.94;;;7.21;100.00
35908;BME280;22003;50.320;8.054;2023-02-12T18:05:44;101802.66;;;7.29;100.00
35908;BME280;22003;50.320;8.054;2023-02-12T18:08:10;101805.78;;;7.14;100.00
35908;BME280;22003;50.320;8.054;2023-02-12T18:10:40;101808.22;;;7.20;100.00
35908;BME280;22003;50.320;8.054;2023-02-12T18:13:06;101798.25;;;7.02;100.00
35908;BME280;22003;50.320;8.054;2023-02-12T18:15:31;101827.84;;;7.10;100.00
35908;BME280;22003;50.320;8.054;2023-02-12T18:17:56;101810.97;;;7.44;100.00
35908;BME280;22003;50.320;8.054;2023-02-12T18:20:22;101794.44;;;6.82;100.00
35908;BME280;22003;50.320;8.054;2023-02-12T18:22:47;101829.97;;;6.99;100.00
35908;BME280;22003;50.320;8.054;2023-02-12T18:25:14;101784.81;;;6.81;100.00
35908;BME280;22003;50.320;8.054;2023-02-12T18:27:39;101813.09;;;7.04;100.00
35908;BME280;22003;50.320;8.054;2023-02-12T18:30:06;101803.38;;;6.77;100.00
35908;BME280;22003;50.320;8.054;2023-02-12T18:32:32;101794.78;;;6.70;100.00
35908;BME280;22003;50.320;8.054;2023-02-12T18:34:57;101784.69;;;6.86;100.00
35908;BME280;22003;50.320;8.054;2023-02-12T18:37:22;101788.13;;;6.58;100.00
35908;BME280;22003;50.320;8.054;2023-02-12T18:39:48;101827.63;;;6.88;100.00
35908;BME280;22003;50.320;8.054;2023-02-12T18:42:13;101829.34;;;6.91;100.00
35908;BME280;22003;50.320;8.054;2023-02-12T18:44:38;101815.75;;;6.75;100.00
35908;BME280;22003;50.320;8.054;2023-02-12T18:47:03;101822.00;;;6.71;100.00
35908;BME280;22003;50.320;8.054;2023-02-12T18:49:29;101828.22;;;6.68;100.00
35908;BME280;22003;50.320;8.054;2023-02-12T18:51:54;101781.50;;;6.45;100.00
35908;BME280;22003;50.320;8.054;2023-02-12T18:54:20;101810.72;;;6.66;100.00
35908;BME280;22003;50.320;8.054;2023-02-12T18:56:49;101812.50;;;6.65;100.00
35908;BME280;22003;50.320;8.054;2023-02-12T18:59:15;101819.19;;;6.77;100.00
35908;BME280;22003;50.320;8.054;2023-02-12T19:01:41;101818.19;;;6.81;100.00
35908;BME280;22003;50.320;8.054;2023-02-12T19:04:09;101815.91;;;6.69;100.00
35908;BME280;22003;50.320;8.054;2023-02-12T19:06:42;101809.00;;;6.65;100.00
35908;BME280;22003;50.320;8.054;2023-02-12T19:09:08;101812.72;;;6.57;100.00
35908;BME280;22003;50.320;8.054;2023-02-12T19:11:34;101810.22;;;6.53;100.00
35908;BME280;22003;50.320;8.054;2023-02-12T19:14:00;101818.00;;;6.57;100.00